Time;durP1;ratioP1;P1;durP2;ratioP2;P2;SDS_P1;SDS_P2;PMS_P1;PMS_P2;Temp;Humidity;BMP_temperature;BMP_pressure;BME280_temperature;BME280_humidity;BME280_pressure;Samples;Min_cycle;Max_cycle;Signal;HPM_P1;HPM_P2
2022/04/05 00:01:06;;;;;;;13.03;7.53;;;;;;;18.35;54.83;100619.34;5031064;28;20204;-72
2022/04/05 00:03:32;;;;;;;19.80;6.37;;;;;;;18.71;55.07;100626.53;5032860;28;20124;-71
2022/04/05 00:05:57;;;;;;;13.87;5.97;;;;;;;17.63;57.36;100636.59;5031550;28;20485;-71
2022/04/05 00:08:23;;;;;;;12.50;5.73;;;;;;;17.52;57.30;100634.41;5031628;28;20026;-72
2022/04/05 00:10:48;;;;;;;11.77;5.37;;;;;;;17.35;58.89;100626.31;5033106;28;20033;-72
2022/04/05 00:13:13;;;;;;;12.50;5.80;;;;;;;17.77;56.65;100628.94;5031730;28;20083;-72
2022/04/05 00:15:39;;;;;;;17.33;7.20;;;;;;;18.70;54.00;100629.22;5031843;28;20029;-72
2022/04/05 00:18:04;;;;;;;8.17;4.63;;;;;;;16.79;62.59;100645.22;5025606;28;20108;-72
2022/04/05 00:20:30;;;;;;;14.53;6.97;;;;;;;18.09;56.34;100629.34;5014753;28;20552;-72
2022/04/05 00:22:58;;;;;;;16.10;6.50;;;;;;;17.66;56.60;100630.34;5010810;28;20077;-72
2022/04/05 00:25:24;;;;;;;17.90;6.80;;;;;;;17.75;56.75;100625.50;5022246;28;20067;-72
2022/04/05 00:27:49;;;;;;;15.63;7.30;;;;;;;-146.34;55.00;100630.63;5032704;28;20022;-72
2022/04/05 00:30:15;;;;;;;19.33;7.57;;;;;;;18.37;53.94;100632.50;5032081;28;20045;-72
2022/04/05 00:32:41;;;;;;;15.57;6.00;;;;;;;17.68;54.89;100634.63;5030917;28;20038;-72
2022/04/05 00:35:08;;;;;;;17.60;8.03;;;;;;;18.06;56.02;100632.09;5029889;28;20036;-71
2022/04/05 00:37:34;;;;;;;23.73;6.43;;;;;;;18.12;54.08;100631.84;5031523;28;20022;-72
2022/04/05 00:40:00;;;;;;;14.10;6.73;;;;;;;17.45;57.76;100628.53;5030633;28;20021;-72
2022/04/05 00:42:25;;;;;;;15.03;6.30;;;;;;;18.79;51.95;100628.78;5031661;28;20519;-72
2022/04/05 00:44:50;;;;;;;16.83;6.57;;;;;;;18.51;52.40;100630.09;5028821;28;20496;-72
2022/04/05 00:47:21;;;;;;;13.10;5.97;;;;;;;18.67;51.50;100619.66;5019169;28;20100;-71
2022/04/05 00:49:48;;;;;;;19.27;6.80;;;;;;;18.22;54.23;100628.81;5014915;28;20026;-72
2022/04/05 00:52:15;;;;;;;12.40;6.00;;;;;;;18.88;51.51;100632.84;5030670;28;20026;-71
2022/04/05 00:54:43;;;;;;;13.53;6.00;;;;;;;18.42;52.72;100635.81;5032050;28;20052;-72
2022/04/05 00:57:11;;;;;;;16.43;5.50;;;;;;;18.89;50.78;100631.88;5029755;28;20131;-72
2022/04/05 00:59:41;;;;;;;14.27;5.63;;;;;;;19.60;48.75;100641.66;5030899;28;20068;-72
2022/04/05 01:02:09;;;;;;;15.43;6.23;;;;;;;19.62;48.67;100638.00;5028936;28;20037;-72
2022/04/05 01:04:35;;;;;;;9.80;5.87;;;;;;;19.29;48.35;100637.91;5029400;28;20468;-71
2022/04/05 01:07:04;;;;;;;15.20;4.70;;;;;;;18.55;50.23;100638.75;5017807;28;20456;-72
2022/04/05 01:09:30;;;;;;;17.53;5.40;;;;;;;19.30;48.40;100655.50;5032047;28;20045;-72
2022/04/05 01:11:55;;;;;;;17.63;6.07;;;;;;;19.24;48.32;100650.53;5031356;28;20029;-72
2022/04/05 01:14:21;;;;;;;12.33;5.93;;;;;;;19.26;48.10;100643.34;5030084;28;20393;-71
2022/04/05 01:16:47;;;;;;;10.20;5.00;;;;;;;18.53;50.96;100648.56;5015111;28;20072;-71
2022/04/05 01:19:12;;;;;;;18.20;5.30;;;;;;;19.94;46.41;100645.25;5026177;28;20022;-71
2022/04/05 01:21:38;;;;;;;16.43;5.13;;;;;;;18.45;49.73;100652.41;5030087;28;20053;-72
2022/04/05 01:24:11;;;;;;;15.63;5.13;;;;;;;20.07;45.99;100645.47;5031548;28;20029;-72
2022/04/05 01:26:40;;;;;;;11.83;5.10;;;;;;;20.71;44.84;100646.47;5031163;28;20025;-71
2022/04/05 01:29:05;;;;;;;11.97;5.00;;;;;;;20.82;43.63;100643.22;5013721;28;20370;-72
2022/04/05 01:31:39;;;;;;;14.43;5.07;;;;;;;20.66;44.04;100643.16;5027823;28;20056;-72
2022/04/05 01:34:05;;;;;;;13.13;6.40;;;;;;;20.36;44.69;100646.59;5023562;28;20021;-73
2022/04/05 01:36:30;;;;;;;13.40;5.87;;;;;;;20.14;44.84;100652.16;5025957;28;20025;-72
2022/04/05 01:38:56;;;;;;;13.73;5.50;;;;;;;19.75;46.13;100651.47;5030492;28;20044;-73
2022/04/05 01:41:21;;;;;;;17.20;5.10;;;;;;;19.56;47.38;100650.69;5031740;28;20022;-72
2022/04/05 01:43:47;;;;;;;19.83;6.47;;;;;;;19.04;48.45;100644.41;5030144;28;20512;-72
2022/04/05 01:46:12;;;;;;;17.13;5.37;;;;;;;18.96;47.84;100644.78;5027980;28;20159;-72
2022/04/05 01:48:39;;;;;;;15.77;6.23;;;;;;;19.90;45.17;100643.72;5015379;28;20374;-72
2022/04/05 01:51:05;;;;;;;13.63;5.83;;;;;;;19.20;46.66;100643.66;5029357;28;20083;-72
2022/04/05 01:53:30;;;;;;;13.70;5.93;;;;;;;20.22;44.96;100627.88;5018063;28;20117;-72
2022/04/05 01:55:55;;;;;;;17.10;5.57;;;;;;;20.20;45.84;100635.09;5017402;28;20033;-72
2022/04/05 01:58:21;;;;;;;15.43;6.13;;;;;;;20.20;45.84;100635.09;5029337;28;20029;-72
2022/04/05 02:00:49;;;;;;;11.20;5.40;;;;;;;20.51;44.06;100640.44;5030758;28;20145;-72
2022/04/05 02:03:14;;;;;;;13.93;6.23;;;;;;;20.64;43.73;100623.81;5028525;28;20025;-72
2022/04/05 02:05:40;;;;;;;13.17;6.53;;;;;;;20.31;44.45;100627.38;5022184;28;20030;-71
2022/04/05 02:08:06;;;;;;;12.60;6.57;;;;;;;19.29;47.43;100632.63;5040879;28;20489;-71
2022/04/05 02:10:31;;;;;;;9.87;6.03;;;;;;;19.73;46.29;100632.16;5013213;28;20515;-72
2022/04/05 02:12:56;;;;;;;13.10;6.53;;;;;;;20.43;44.99;100632.03;5030621;28;20029;-72
2022/04/05 02:15:22;;;;;;;13.37;7.20;;;;;;;19.36;46.50;100636.66;5028017;28;20429;-72
2022/04/05 02:17:47;;;;;;;10.77;6.40;;;;;;;19.00;48.14;100634.91;5029367;28;20465;-71
2022/04/05 02:20:13;;;;;;;11.97;6.70;;;;;;;18.91;48.31;100633.53;5029235;28;20032;-72
2022/04/05 02:22:39;;;;;;;16.50;6.80;;;;;;;20.14;45.37;100625.63;5028602;28;20041;-72
2022/04/05 02:25:05;;;;;;;16.10;6.87;;;;;;;19.97;46.27;100630.03;5022252;28;20390;-72
2022/04/05 02:27:30;;;;;;;16.30;7.43;;;;;;;19.31;47.47;100638.69;5030905;28;20021;-72
2022/04/05 02:29:55;;;;;;;15.00;7.90;;;;;;;20.09;45.54;100633.84;5028897;28;20025;-72
2022/04/05 02:32:21;;;;;;;16.30;8.00;;;;;;;19.29;47.63;100636.13;5028292;28;20489;-72
2022/04/05 02:34:46;;;;;;;17.17;7.37;;;;;;;19.18;47.93;100637.56;5030045;28;20140;-72
2022/04/05 02:37:11;;;;;;;15.60;6.60;;;;;;;19.31;46.89;100630.72;5028615;28;20029;-72
2022/04/05 02:39:37;;;;;;;14.00;7.30;;;;;;;19.04;47.80;100633.81;5030560;28;20048;-71
2022/04/05 02:42:02;;;;;;;15.37;7.90;;;;;;;19.52;47.94;100635.88;5044627;28;20108;-72
2022/04/05 02:44:28;;;;;;;11.07;6.57;;;;;;;19.08;47.79;100635.38;5030234;28;20025;-72
2022/04/05 02:46:53;;;;;;;16.00;7.17;;;;;;;18.77;49.46;100636.81;5024331;28;20470;-72
2022/04/05 02:49:18;;;;;;;12.23;7.20;;;;;;;19.53;47.97;100637.63;5010058;28;20026;-72
2022/04/05 02:51:44;;;;;;;17.00;7.60;;;;;;;19.75;46.64;100637.38;5039780;28;20065;-72
2022/04/05 02:54:09;;;;;;;15.27;8.50;;;;;;;19.54;47.20;100631.38;5027640;28;20477;-71
2022/04/05 02:56:34;;;;;;;13.97;7.60;;;;;;;19.14;47.71;100627.13;5029167;28;20461;-72
2022/04/05 02:59:00;;;;;;;14.40;7.60;;;;;;;20.07;46.97;100619.81;5030726;28;20059;-72
2022/04/05 03:01:25;;;;;;;16.70;7.27;;;;;;;19.15;49.80;100626.19;5028820;28;20029;-72
2022/04/05 03:03:50;;;;;;;17.63;7.63;;;;;;;19.24;48.37;100624.03;5030508;28;20040;-72
2022/04/05 03:06:16;;;;;;;13.43;6.93;;;;;;;19.20;48.69;100628.59;5027996;28;20029;-71
2022/04/05 03:08:42;;;;;;;12.23;6.63;;;;;;;19.03;49.21;100621.50;5030368;28;20421;-72
2022/04/05 03:11:07;;;;;;;14.07;7.20;;;;;;;18.00;52.40;100619.19;5028355;28;20025;-71
2022/04/05 03:13:33;;;;;;;11.67;6.83;;;;;;;18.97;50.24;100627.09;5030607;28;20021;-72
2022/04/05 03:15:59;;;;;;;12.87;6.53;;;;;;;19.41;47.92;100620.53;5027548;28;20383;-71
2022/04/05 03:18:24;;;;;;;13.90;7.50;;;;;;;18.21;50.89;100622.63;5010745;28;20029;-72
2022/04/05 03:20:50;;;;;;;12.03;7.23;;;;;;;18.95;51.42;100623.66;5026266;28;20041;-72
2022/04/05 03:23:15;;;;;;;13.17;6.67;;;;;;;19.36;47.75;100620.78;5032150;28;20572;-71
2022/04/05 03:25:41;;;;;;;13.23;7.17;;;;;;;19.00;49.37;100621.66;5031560;28;20495;-72
2022/04/05 03:28:06;;;;;;;12.90;7.00;;;;;;;18.81;50.20;100617.19;5012798;28;20048;-72
2022/04/05 03:30:32;;;;;;;15.90;7.27;;;;;;;18.33;51.78;100621.22;5022918;28;20036;-72
2022/04/05 03:32:57;;;;;;;15.03;8.33;;;;;;;19.17;49.67;100623.47;5032604;28;20033;-72
2022/04/05 03:35:23;;;;;;;14.33;7.87;;;;;;;19.30;48.39;100613.09;5032630;28;20030;-71
2022/04/05 03:37:48;;;;;;;13.33;8.33;;;;;;;19.47;48.00;100621.06;5032336;28;20022;-71
2022/04/05 03:40:14;;;;;;;15.53;8.93;;;;;;;19.14;49.07;100624.47;5029991;28;20492;-72
2022/04/05 03:42:39;;;;;;;16.53;8.13;;;;;;;19.10;49.12;100614.97;5014138;28;20057;-72
2022/04/05 03:45:05;;;;;;;14.57;7.87;;;;;;;18.33;51.48;100610.66;5029863;28;20029;-72
2022/04/05 03:47:31;;;;;;;14.60;6.83;;;;;;;17.67;54.17;100622.34;5034282;28;20045;-72
2022/04/05 03:49:57;;;;;;;15.90;8.20;;;;;;;18.62;51.51;100613.72;5033129;28;20401;-71
2022/04/05 03:52:22;;;;;;;15.40;8.43;;;;;;;19.83;47.63;100601.59;5031992;28;20033;-72
2022/04/05 03:54:47;;;;;;;14.00;7.57;;;;;;;18.84;50.94;100620.66;5031137;28;20025;-72
2022/04/05 03:57:13;;;;;;;19.50;8.50;;;;;;;18.84;50.03;100620.66;5032455;28;20389;-72
2022/04/05 03:59:38;;;;;;;17.53;7.80;;;;;;;19.42;48.50;100607.19;5030309;28;20076;-71
2022/04/05 04:02:07;;;;;;;14.77;7.30;;;;;;;18.65;51.67;100606.47;5019718;28;20428;-72
2022/04/05 04:04:32;;;;;;;16.87;7.87;;;;;;;19.24;49.64;100608.97;5031812;28;20025;-72
2022/04/05 04:06:57;;;;;;;17.90;8.00;;;;;;;17.85;53.36;100606.59;5032295;28;20492;-72
2022/04/05 04:09:23;;;;;;;19.07;8.17;;;;;;;18.88;50.85;100609.00;5030298;28;20512;-72
2022/04/05 04:11:49;;;;;;;18.30;7.30;;;;;;;19.11;49.68;100614.03;5028727;28;20022;-72
2022/04/05 04:14:15;;;;;;;21.77;8.07;;;;;;;19.17;48.52;100617.31;5031850;28;20022;-72
2022/04/05 04:16:40;;;;;;;26.70;7.97;;;;;;;18.47;51.07;100615.28;5031865;28;20037;-72
2022/04/05 04:19:05;;;;;;;20.97;7.50;;;;;;;18.22;53.03;100610.28;5031497;28;20021;-72
2022/04/05 04:21:31;;;;;;;17.60;8.07;;;;;;;18.22;53.03;81609.47;5031435;28;20040;-72
2022/04/05 04:23:56;;;;;;;18.50;6.93;;;;;;;17.91;54.22;100603.69;5030963;28;20076;-72
2022/04/05 04:26:22;;;;;;;15.83;6.27;;;;;;;17.30;55.48;100618.59;5030733;28;20117;-72
2022/04/05 04:28:51;;;;;;;22.63;7.33;;;;;;;18.41;53.51;100605.84;5031933;28;20071;-71
2022/04/05 04:31:17;;;;;;;15.43;6.70;;;;;;;17.41;56.58;100611.09;5014329;28;20486;-71
2022/04/05 04:33:43;;;;;;;21.10;7.50;;;;;;;18.48;53.35;100604.63;5030862;28;20066;-72
2022/04/05 04:36:08;;;;;;;22.10;7.10;;;;;;;18.45;53.94;100615.38;5030490;28;20025;-72
2022/04/05 04:38:34;;;;;;;20.37;7.47;;;;;;;18.35;52.70;100611.41;5031321;28;20033;-72
2022/04/05 04:40:59;;;;;;;13.70;6.40;;;;;;;17.42;55.60;100614.56;5031193;28;20036;-72
2022/04/05 04:43:27;;;;;;;13.63;7.63;;;;;;;17.71;55.30;100608.06;5030302;28;20447;-71
2022/04/05 04:45:53;;;;;;;19.13;6.73;;;;;;;17.93;53.51;100601.88;5015840;28;20030;-72
2022/04/05 04:48:19;;;;;;;27.37;8.30;;;;;;;18.85;51.83;100609.97;5024770;28;20022;-72
2022/04/05 04:50:46;;;;;;;19.07;6.90;;;;;;;18.16;52.95;100606.09;5030286;28;20076;-72
2022/04/05 04:53:12;;;;;;;11.10;4.83;;;;;;;17.28;54.11;100615.16;5030379;28;20029;-72
2022/04/05 04:55:37;;;;;;;19.10;6.53;;;;;;;18.14;53.88;100611.47;5030521;28;20029;-72
2022/04/05 04:58:02;;;;;;;15.50;6.90;;;;;;;18.43;50.79;100611.91;5030195;28;20114;-71
2022/04/05 05:00:28;;;;;;;16.90;6.53;;;;;;;18.01;53.51;100615.63;5030392;28;20029;-72
2022/04/05 05:02:53;;;;;;;18.00;6.03;;;;;;;18.04;52.44;100610.19;5030663;28;20030;-71
2022/04/05 05:05:20;;;;;;;16.43;6.10;;;;;;;17.84;52.00;100612.81;5029482;28;20113;-71
2022/04/05 05:07:47;;;;;;;12.37;6.60;;;;;;;17.84;52.00;100612.81;5022477;28;20025;-72
2022/04/05 05:10:14;;;;;;;11.67;5.70;;;;;;;17.80;52.18;100615.59;5026238;28;20147;-71
2022/04/05 05:12:40;;;;;;;18.70;5.93;;;;;;;18.41;50.88;100607.63;5030012;28;20021;-72
2022/04/05 05:15:08;;;;;;;13.60;5.97;;;;;;;18.64;51.96;100614.50;5031256;28;20029;-72
2022/04/05 05:17:34;;;;;;;15.33;6.97;;;;;;;17.59;54.31;100627.09;5028101;28;20026;-72
2022/04/05 05:20:00;;;;;;;16.00;6.40;;;;;;;17.59;54.31;100627.09;5031014;28;20436;-71
2022/04/05 05:22:25;;;;;;;24.27;6.97;;;;;;;18.26;52.49;100619.78;5030378;28;20053;-72
2022/04/05 05:24:50;;;;;;;15.83;6.83;;;;;;;18.32;51.68;100614.22;5029261;28;20029;-72
2022/04/05 05:27:16;;;;;;;14.93;6.70;;;;;;;17.90;53.18;100625.75;5030562;28;20037;-72
2022/04/05 05:29:41;;;;;;;18.23;7.53;;;;;;;18.37;50.32;100622.81;5029615;28;20477;-71
2022/04/05 05:32:07;;;;;;;20.23;6.40;;;;;;;18.68;49.49;100626.66;5030119;28;20052;-72
2022/04/05 05:34:32;;;;;;;12.20;5.37;;;;;;;19.69;47.78;100624.41;5024399;28;20507;-72
2022/04/05 05:36:58;;;;;;;10.77;4.33;;;;;;;18.13;51.13;100630.94;5025108;28;20416;-71
2022/04/05 05:39:23;;;;;;;17.60;5.47;;;;;;;18.33;50.15;100623.88;5021295;28;20030;-72
2022/04/05 05:41:48;;;;;;;22.37;8.33;;;;;;;19.30;49.42;100629.00;5018857;28;20093;-72
2022/04/05 05:44:14;;;;;;;11.87;5.53;;;;;;;19.39;47.67;100625.91;5029750;28;20064;-73
2022/04/05 05:46:39;;;;;;;16.00;6.17;;;;;;;18.42;49.51;100635.81;5030525;28;20470;-72
2022/04/05 05:49:04;;;;;;;10.60;4.67;;;;;;;17.57;54.57;100631.56;5030799;28;20096;-72
2022/04/05 05:51:30;;;;;;;10.57;4.80;;;;;;;18.17;52.26;100630.78;5031521;28;20112;-72
2022/04/05 05:53:55;;;;;;;16.17;7.10;;;;;;;18.17;52.26;100630.78;5011936;28;20035;-72
2022/04/05 05:56:20;;;;;;;14.10;5.10;;;;;;;18.20;50.68;100647.34;5029593;28;20392;-72
2022/04/05 05:58:50;;;;;;;10.13;6.03;;;;;;;18.31;50.71;100638.94;5030026;28;20489;-72
2022/04/05 06:01:16;;;;;;;12.20;5.43;;;;;;;18.75;49.75;100640.47;5030015;28;20116;-72
2022/04/05 06:03:41;;;;;;;18.23;5.23;;;;;;;18.16;52.03;100644.94;5030509;28;20505;-72
2022/04/05 06:06:07;;;;;;;10.07;4.97;;;;;;;18.94;49.59;100653.72;5029208;28;20112;-72
2022/04/05 06:08:32;;;;;;;8.57;5.10;;;;;;;18.77;49.85;100642.09;5030636;28;20029;-71
2022/04/05 06:10:57;;;;;;;7.60;4.87;;;;;;;17.78;50.95;100654.44;5029596;28;20473;-72
2022/04/05 06:13:24;;;;;;;10.83;5.17;;;;;;;19.02;48.97;100646.25;5029603;28;20065;-72
2022/04/05 06:15:50;;;;;;;12.53;5.47;;;;;;;18.70;49.91;100643.34;5025599;28;20052;-71
2022/04/05 06:18:15;;;;;;;13.27;4.13;;;;;;;18.93;48.97;100652.00;5030057;28;20508;-71
2022/04/05 06:20:41;;;;;;;13.80;5.53;;;;;;;19.27;47.62;100645.91;5029841;28;20039;-71
2022/04/05 06:23:06;;;;;;;11.80;4.53;;;;;;;19.01;48.94;100655.13;5029171;28;20045;-71
2022/04/05 06:25:34;;;;;;;12.53;5.43;;;;;;;19.34;47.36;100651.78;5025461;28;20104;-71
2022/04/05 06:28:03;;;;;;;13.73;5.30;;;;;;;18.96;48.23;100658.00;5029838;28;20022;-71
2022/04/05 06:30:32;;;;;;;10.70;4.23;;;;;;;19.07;47.70;100654.84;5029650;28;20481;-71
2022/04/05 06:33:12;;;;;;;13.40;5.60;;;;;;;18.58;49.65;100662.44;5030483;28;20033;-71
2022/04/05 06:35:39;;;;;;;9.47;4.53;;;;;;;18.35;50.74;-17208.25;5029047;28;20021;-71
2022/04/05 06:38:05;;;;;;;15.23;5.23;;;;;;;18.85;48.98;100665.59;5029866;28;20032;-72
2022/04/05 06:40:30;;;;;;;11.50;4.70;;;;;;;19.34;48.72;100667.66;5029803;28;20482;-71
2022/04/05 06:42:56;;;;;;;13.50;3.90;;;;;;;19.27;48.02;100668.91;5028856;28;20030;-71
2022/04/05 06:45:22;;;;;;;13.17;4.47;;;;;;;18.97;48.52;100664.16;5028929;28;20404;-70
2022/04/05 06:47:48;;;;;;;5.57;3.80;;;;;;;19.18;48.03;100662.28;5029259;28;20026;-72
2022/04/05 06:50:17;;;;;;;10.90;4.13;;;;;;;19.70;46.87;100669.44;5028475;28;20048;-71
2022/04/05 06:52:42;;;;;;;12.70;4.60;;;;;;;19.10;47.99;100672.38;5031338;28;20045;-71
2022/04/05 06:55:09;;;;;;;17.00;4.50;;;;;;;18.77;48.83;100662.44;5033192;28;20076;-71
2022/04/05 06:57:35;;;;;;;11.53;4.00;;;;;;;19.86;45.62;100679.28;5032905;28;20030;-71
2022/04/05 07:00:00;;;;;;;8.57;4.13;;;;;;;19.30;47.04;100671.41;5031373;28;20447;-71
2022/04/05 07:02:26;;;;;;;8.90;4.33;;;;;;;19.21;47.21;100677.19;5032605;28;20115;-71
2022/04/05 07:04:51;;;;;;;8.50;3.33;;;;;;;19.04;47.60;100672.66;5031972;28;20017;-72
2022/04/05 07:07:17;;;;;;;7.63;3.50;;;;;;;19.51;45.99;100669.50;5032650;28;20034;-71
2022/04/05 07:09:43;;;;;;;11.70;4.13;;;;;;;19.81;45.58;100675.06;5032469;28;20025;-71
2022/04/05 07:12:09;;;;;;;10.37;2.80;;;;;;;19.43;46.78;100683.13;5032276;28;20495;-71
2022/04/05 07:14:34;;;;;;;5.87;3.47;;;;;;;19.61;45.96;100681.34;5031753;28;20057;-71
2022/04/05 07:16:59;;;;;;;9.97;4.37;;;;;;;20.37;44.54;100676.63;5032580;28;20040;-71
2022/04/05 07:19:25;;;;;;;7.60;4.03;;;;;;;20.53;44.01;100674.00;5033708;28;20033;-71
2022/04/05 07:21:50;;;;;;;7.57;3.20;;;;;;;19.72;45.38;100683.44;5033513;28;20050;-72
2022/04/05 07:24:16;;;;;;;5.33;3.10;;;;;;;19.39;46.52;100684.22;5031771;28;20041;-71
2022/04/05 07:26:42;;;;;;;8.93;3.67;;;;;;;20.41;44.80;100686.97;5033742;28;20109;-71
2022/04/05 07:29:07;;;;;;;11.03;3.00;;;;;;;19.74;45.17;100691.31;5033305;28;20029;-72
2022/04/05 07:31:33;;;;;;;6.17;2.63;;;;;;;19.60;46.63;100673.47;5031185;28;20418;-71
2022/04/05 07:33:59;;;;;;;9.20;3.03;;;;;;;19.40;46.54;100680.63;5032016;28;20056;-71
2022/04/05 07:36:24;;;;;;;8.37;3.97;;;;;;;19.99;45.17;100680.38;5031999;28;20068;-71
2022/04/05 07:38:51;;;;;;;7.73;3.33;;;;;;;19.33;46.49;100688.03;5030408;28;20036;-71
2022/04/05 07:41:18;;;;;;;7.80;2.50;;;;;;;18.68;48.14;100690.19;5035597;28;20033;-71
2022/04/05 07:43:44;;;;;;;8.40;3.73;;;;;;;19.64;45.98;100683.00;5033330;28;20044;-70
2022/04/05 07:46:10;;;;;;;9.27;3.63;;;;;;;20.57;44.49;100670.25;5035266;28;20389;-70
2022/04/05 07:48:35;;;;;;;7.37;3.03;;;;;;;19.80;45.68;100686.59;5038934;28;20026;-71
2022/04/05 07:51:01;;;;;;;6.43;3.43;;;;;;;19.11;46.41;129161.50;5033061;28;20071;-71
2022/04/05 07:53:27;;;;;;;10.10;2.83;;;;;;;20.10;44.99;100693.94;5030710;28;20488;-71
2022/04/05 07:55:54;;;;;;;5.80;3.37;;;;;;;19.26;47.41;98634.19;5033445;28;20112;-71
2022/04/05 07:58:19;;;;;;;9.37;4.03;;;;;;;19.94;45.68;100685.91;5032385;28;20097;-71
2022/04/05 08:00:45;;;;;;;10.57;3.40;;;;;;;19.93;45.30;100676.22;5031090;28;20064;-71
2022/04/05 08:03:10;;;;;;;9.07;3.40;;;;;;;19.31;46.71;98515.91;5017607;28;20030;-72
2022/04/05 08:05:36;;;;;;;9.50;3.93;;;;;;;18.60;49.55;100687.91;5027076;28;20038;-71
2022/04/05 08:08:01;;;;;;;10.40;3.70;;;;;;;19.26;47.03;100689.25;5035695;28;20071;-70
2022/04/05 08:10:26;;;;;;;7.43;3.00;;;;;;;19.74;47.13;100681.59;5030767;28;20037;-71
2022/04/05 08:12:52;;;;;;;5.63;3.20;;;;;;;20.33;45.63;100681.22;5031248;28;20025;-71
2022/04/05 08:15:22;;;;;;;5.47;3.17;;;;;;;20.04;45.75;100691.56;5031259;28;20025;-71
2022/04/05 08:17:48;;;;;;;11.40;3.90;;;;;;;19.29;47.90;100680.31;5020217;28;20057;-71
2022/04/05 08:20:14;;;;;;;6.17;3.80;;;;;;;20.16;46.01;100692.75;5025455;28;20076;-71
2022/04/05 08:22:41;;;;;;;6.10;3.33;;;;;;;20.24;45.49;100695.00;5033032;28;20073;-71
2022/04/05 08:25:07;;;;;;;6.87;3.47;;;;;;;19.90;46.73;100688.78;5030990;28;20029;-71
2022/04/05 08:27:33;;;;;;;9.57;4.20;;;;;;;20.13;45.97;100699.06;5030417;28;20028;-71
2022/04/05 08:29:59;;;;;;;8.43;3.93;;;;;;;19.93;46.13;100691.28;5050041;28;20029;-71
2022/04/05 08:32:24;;;;;;;5.33;2.70;;;;;;;19.40;46.21;100688.59;5039420;28;20043;-71
2022/04/05 08:34:49;;;;;;;7.70;3.20;;;;;;;19.28;47.43;100694.47;5028840;28;20347;-71
2022/04/05 08:37:15;;;;;;;12.03;3.33;;;;;;;19.60;46.79;100694.69;5031723;28;20613;-71
2022/04/05 08:39:42;;;;;;;5.60;3.53;;;;;;;19.54;47.04;100700.31;5033729;28;20056;-71
2022/04/05 08:42:08;;;;;;;6.90;3.67;;;;;;;19.50;47.64;100702.22;5031790;28;20048;-70
2022/04/05 08:44:34;;;;;;;11.87;3.83;;;;;;;19.38;48.36;100701.03;5031885;28;20075;-71
2022/04/05 08:47:01;;;;;;;6.37;3.77;;;;;;;18.35;50.41;100697.88;5034753;28;20109;-71
2022/04/05 08:49:28;;;;;;;7.83;3.40;;;;;;;19.77;47.64;100707.94;5020603;28;20025;-71
2022/04/05 08:51:54;;;;;;;4.40;2.73;;;;;;;18.64;49.48;100709.78;5020867;28;20044;-71
2022/04/05 08:54:19;;;;;;;6.13;3.23;;;;;;;19.83;47.61;100707.66;5025738;28;20030;-71
2022/04/05 08:56:47;;;;;;;9.43;3.17;;;;;;;19.15;49.31;100704.78;5011286;28;20057;-71
2022/04/05 08:59:12;;;;;;;4.13;2.63;;;;;;;19.20;47.66;100701.94;5028850;28;20033;-71
2022/04/05 09:01:38;;;;;;;6.33;2.90;;;;;;;20.45;45.41;100699.16;5030815;28;20492;-71
2022/04/05 09:04:04;;;;;;;6.83;2.80;;;;;;;18.52;49.67;100711.22;5031774;28;20100;-70
2022/04/05 09:06:36;;;;;;;6.63;3.40;;;;;;;19.02;48.96;100709.81;5031084;28;20061;-71
2022/04/05 09:09:13;;;;;;;10.57;2.92;;;;;;;20.00;46.56;100713.91;5019645;28;20087;-71
2022/04/05 09:11:47;;;;;;;5.63;2.80;;;;;;;19.49;47.18;100712.00;5024820;28;20029;-71
2022/04/05 09:14:12;;;;;;;3.50;2.80;;;;;;;18.54;49.89;100725.22;5045510;28;20041;-71
2022/04/05 09:16:38;;;;;;;5.40;2.50;;;;;;;19.77;46.04;100721.22;5029823;28;20025;-70
2022/04/05 09:19:14;;;;;;;4.00;2.77;;;;;;;18.63;48.99;100718.69;5037617;28;20060;-71
2022/04/05 09:21:53;;;;;;;6.13;3.33;;;;;;;19.52;48.73;100718.06;5027994;28;20057;-71
2022/04/05 09:24:19;;;;;;;8.33;3.53;;;;;;;20.39;45.28;100725.16;5030710;28;20440;-71
2022/04/05 09:26:45;;;;;;;3.60;2.17;;;;;;;20.89;44.33;100718.97;5022241;28;20469;-71
2022/04/05 09:29:11;;;;;;;6.77;2.33;;;;;;;20.37;45.42;100725.25;5029318;28;20037;-71
2022/04/05 09:31:48;;;;;;;8.97;2.70;;;;;;;20.79;44.21;100720.41;5029602;28;20548;-71
2022/04/05 09:34:19;;;;;;;6.67;2.90;;;;;;;20.79;44.21;100720.41;5029457;28;20033;-71
2022/04/05 09:36:48;;;;;;;6.63;1.80;;;;;;;18.72;48.73;100734.13;5026992;28;20017;-71
2022/04/05 09:39:18;;;;;;;4.23;2.20;;;;;;;19.01;47.48;100737.25;5029309;28;20034;-71
2022/04/05 09:41:46;;;;;;;5.60;2.93;;;;;;;19.01;47.48;100737.25;5029323;28;20028;-71
2022/04/05 09:44:11;;;;;;;10.70;2.87;;;;;;;19.88;46.96;100735.75;5031575;28;20091;-71
2022/04/05 09:46:39;;;;;;;5.83;2.23;;;;;;;19.88;45.92;100735.75;5030029;28;20021;-71
2022/04/05 09:49:08;;;;;;;5.77;2.60;;;;;;;21.50;42.72;100727.94;5030077;28;20021;-71
2022/04/05 09:51:42;;;;;;;4.17;2.00;;;;;;;19.46;46.72;100743.91;5010672;28;20062;-70
2022/04/05 09:54:16;;;;;;;8.87;2.80;;;;;;;19.75;46.39;100733.66;5030146;28;20496;-71
2022/04/05 09:56:43;;;;;;;4.13;2.80;;;;;;;20.41;44.90;100734.75;5030720;28;20462;-70
2022/04/05 09:59:18;;;;;;;5.83;2.50;;;;;;;20.44;44.30;100739.06;5029400;28;20032;-71
2022/04/05 10:01:45;;;;;;;3.50;2.43;;;;;;;20.55;43.64;100730.53;5040192;28;20025;-71
2022/04/05 10:04:13;;;;;;;3.47;2.00;;;;;;;20.55;43.64;100730.53;5028775;28;20040;-70
2022/04/05 10:06:43;;;;;;;8.93;2.47;;;;;;;18.98;47.89;100734.75;5027525;28;20129;-71
2022/04/05 10:09:08;;;;;;;6.00;1.90;;;;;;;19.10;47.54;100722.72;5029585;28;20104;-72
2022/04/05 10:11:38;;;;;;;3.58;2.30;;;;;;;19.10;100.00;100722.72;5030447;28;20524;-70
2022/04/05 10:14:04;;;;;;;3.93;2.63;;;;;;;20.68;44.68;100731.63;5029378;28;20025;-71
2022/04/05 10:16:31;;;;;;;3.37;2.37;;;;;;;19.02;48.75;100735.47;5030549;28;20121;-71
2022/04/05 10:19:03;;;;;;;6.07;2.60;;;;;;;19.97;46.22;100740.59;5030002;28;20032;-71
2022/04/05 10:21:30;;;;;;;6.13;3.17;;;;;;;19.63;47.50;100742.25;5046933;28;20435;-71
2022/04/05 10:23:57;;;;;;;5.87;3.10;;;;;;;-98.93;46.43;100730.53;5012010;28;20363;-71
2022/04/05 10:26:26;;;;;;;3.87;2.20;;;;;;;20.01;46.35;100734.19;5030181;28;20037;-71
2022/04/05 10:28:53;;;;;;;5.93;2.38;;;;;;;20.94;45.31;100729.34;5035441;28;20035;-71
2022/04/05 10:31:57;;;;;;;6.80;2.80;;;;;;;20.79;45.45;100723.91;5028942;28;20056;-71
2022/04/05 10:34:42;;;;;;;7.40;2.90;;;;;;;20.70;46.59;100735.03;5022815;28;20033;-71
2022/04/05 10:37:16;;;;;;;6.82;3.10;;;;;;;21.00;45.63;100731.66;5021166;28;20033;-71
2022/04/05 10:39:42;;;;;;;14.02;3.75;;;;;;;21.00;45.75;100734.31;5030311;28;20029;-73
2022/04/05 10:42:07;;;;;;;5.07;3.03;;;;;;;19.97;47.78;100740.59;5010850;28;20492;-71
2022/04/05 10:44:33;;;;;;;4.97;2.50;;;;;;;20.24;46.25;100732.16;5029290;28;20033;-71
2022/04/05 10:47:01;;;;;;;4.07;3.00;;;;;;;20.49;45.98;100737.88;5030011;28;20095;-71
2022/04/05 10:49:47;;;;;;;5.85;2.97;;;;;;;19.52;48.44;100739.25;5030176;28;20025;-72
2022/04/05 10:52:15;;;;;;;7.68;3.97;;;;;;;20.48;45.89;100719.38;5030261;28;20480;-71
2022/04/05 10:54:47;;;;;;;9.05;3.55;;;;;;;20.43;46.44;100735.56;5039087;28;20041;-72
2022/04/05 10:57:16;;;;;;;11.13;3.95;;;;;;;21.02;44.80;100741.25;5029804;28;20029;-71
2022/04/05 10:59:57;;;;;;;10.50;3.70;;;;;;;20.15;46.59;100739.66;5034139;28;20493;-71
2022/04/05 11:02:36;;;;;;;5.80;2.75;;;;;;;20.88;45.37;100727.00;5028160;28;20025;-71
2022/04/05 11:05:14;;;;;;;8.75;3.22;;;;;;;21.05;44.57;100724.28;5013125;28;20428;-71
2022/04/05 11:07:51;;;;;;;5.65;3.28;;;;;;;20.61;45.26;100719.59;5029539;28;20025;-72
2022/04/05 11:10:28;;;;;;;10.38;4.15;;;;;;;20.44;45.92;100739.06;5029630;28;20033;-71
2022/04/05 11:13:14;;;;;;;9.15;3.60;;;;;;;20.12;46.43;100729.19;5030141;28;20068;-72
2022/04/05 11:15:45;;;;;;;8.77;3.65;;;;;;;19.67;47.89;100725.25;5033394;28;20025;-72
2022/04/05 11:18:11;;;;;;;6.25;3.15;;;;;;;20.30;47.59;100726.50;5033080;28;20511;-72